sensor_id;sensor_type;location;lat;lon;timestamp;temperature;humidity
10788;DHT22;5446;50.826;4.380;2022-08-01T00:01:06;20.40;99.90
10788;DHT22;5446;50.826;4.380;2022-08-01T00:03:31;20.50;99.90
10788;DHT22;5446;50.826;4.380;2022-08-01T00:05:57;20.40;99.90
10788;DHT22;5446;50.826;4.380;2022-08-01T00:08:23;20.40;99.90
10788;DHT22;5446;50.826;4.380;2022-08-01T00:10:48;20.40;99.90
10788;DHT22;5446;50.826;4.380;2022-08-01T00:13:14;20.30;99.90
10788;DHT22;5446;50.826;4.380;2022-08-01T00:15:40;20.30;99.90
10788;DHT22;5446;50.826;4.380;2022-08-01T00:18:06;20.30;99.90
10788;DHT22;5446;50.826;4.380;2022-08-01T00:20:31;20.40;99.90
10788;DHT22;5446;50.826;4.380;2022-08-01T00:22:57;20.30;99.90
10788;DHT22;5446;50.826;4.380;2022-08-01T00:25:23;20.40;99.90
10788;DHT22;5446;50.826;4.380;2022-08-01T00:27:48;20.30;99.90
10788;DHT22;5446;50.826;4.380;2022-08-01T00:30:14;20.20;99.90
10788;DHT22;5446;50.826;4.380;2022-08-01T00:32:43;20.20;99.90
10788;DHT22;5446;50.826;4.380;2022-08-01T00:35:09;20.20;99.90
10788;DHT22;5446;50.826;4.380;2022-08-01T00:37:35;20.20;99.90
10788;DHT22;5446;50.826;4.380;2022-08-01T00:40:00;20.20;99.90
10788;DHT22;5446;50.826;4.380;2022-08-01T00:42:26;20.20;99.90
10788;DHT22;5446;50.826;4.380;2022-08-01T00:44:52;20.20;99.90
10788;DHT22;5446;50.826;4.380;2022-08-01T00:47:17;20.10;99.90
10788;DHT22;5446;50.826;4.380;2022-08-01T00:49:43;20.20;99.90
10788;DHT22;5446;50.826;4.380;2022-08-01T00:52:09;20.20;99.90
10788;DHT22;5446;50.826;4.380;2022-08-01T00:54:35;20.20;99.90
10788;DHT22;5446;50.826;4.380;2022-08-01T00:57:03;20.20;99.90
10788;DHT22;5446;50.826;4.380;2022-08-01T00:59:28;20.10;99.90
10788;DHT22;5446;50.826;4.380;2022-08-01T01:01:54;20.10;99.90
10788;DHT22;5446;50.826;4.380;2022-08-01T01:04:20;20.20;99.90
10788;DHT22;5446;50.826;4.380;2022-08-01T01:09:50;20.20;99.90
10788;DHT22;5446;50.826;4.380;2022-08-01T01:15:15;20.20;99.90
10788;DHT22;5446;50.826;4.380;2022-08-01T01:17:47;20.20;99.90
10788;DHT22;5446;50.826;4.380;2022-08-01T01:20:15;20.20;99.90
10788;DHT22;5446;50.826;4.380;2022-08-01T01:25:46;20.20;99.90
10788;DHT22;5446;50.826;4.380;2022-08-01T01:31:13;20.00;99.90
10788;DHT22;5446;50.826;4.380;2022-08-01T01:33:40;19.90;99.90
10788;DHT22;5446;50.826;4.380;2022-08-01T01:36:09;19.90;99.90
10788;DHT22;5446;50.826;4.380;2022-08-01T01:38:42;19.80;99.90
10788;DHT22;5446;50.826;4.380;2022-08-01T01:41:09;19.80;99.90
10788;DHT22;5446;50.826;4.380;2022-08-01T01:43:37;19.90;99.90
10788;DHT22;5446;50.826;4.380;2022-08-01T01:46:04;19.80;99.90
10788;DHT22;5446;50.826;4.380;2022-08-01T01:48:31;19.80;99.90
10788;DHT22;5446;50.826;4.380;2022-08-01T01:50:59;19.80;99.90
10788;DHT22;5446;50.826;4.380;2022-08-01T01:53:27;19.70;99.90
10788;DHT22;5446;50.826;4.380;2022-08-01T01:55:54;19.80;99.90
10788;DHT22;5446;50.826;4.380;2022-08-01T01:58:22;19.80;99.90
10788;DHT22;5446;50.826;4.380;2022-08-01T02:00:50;19.80;99.90
10788;DHT22;5446;50.826;4.380;2022-08-01T02:03:17;19.70;99.90
10788;DHT22;5446;50.826;4.380;2022-08-01T02:05:44;19.70;99.90
10788;DHT22;5446;50.826;4.380;2022-08-01T02:08:11;19.70;99.90
10788;DHT22;5446;50.826;4.380;2022-08-01T02:10:40;19.70;99.90
10788;DHT22;5446;50.826;4.380;2022-08-01T02:13:06;19.60;99.90
10788;DHT22;5446;50.826;4.380;2022-08-01T02:15:34;19.50;99.90
10788;DHT22;5446;50.826;4.380;2022-08-01T02:18:05;19.60;99.90
10788;DHT22;5446;50.826;4.380;2022-08-01T02:20:34;19.60;99.90
10788;DHT22;5446;50.826;4.380;2022-08-01T02:23:08;19.60;99.90
10788;DHT22;5446;50.826;4.380;2022-08-01T02:25:42;19.60;99.90
10788;DHT22;5446;50.826;4.380;2022-08-01T02:28:38;19.70;99.90
10788;DHT22;5446;50.826;4.380;2022-08-01T02:31:09;19.70;99.90
10788;DHT22;5446;50.826;4.380;2022-08-01T02:33:42;19.50;99.90
10788;DHT22;5446;50.826;4.380;2022-08-01T02:36:08;19.50;99.90
10788;DHT22;5446;50.826;4.380;2022-08-01T02:38:40;19.40;99.90
10788;DHT22;5446;50.826;4.380;2022-08-01T02:41:09;19.40;99.90
10788;DHT22;5446;50.826;4.380;2022-08-01T02:43:42;19.50;99.90
10788;DHT22;5446;50.826;4.380;2022-08-01T02:46:13;19.50;99.90
10788;DHT22;5446;50.826;4.380;2022-08-01T02:48:42;19.40;99.90
10788;DHT22;5446;50.826;4.380;2022-08-01T02:51:09;19.50;99.90
10788;DHT22;5446;50.826;4.380;2022-08-01T02:53:38;19.60;99.90
10788;DHT22;5446;50.826;4.380;2022-08-01T02:56:08;19.60;99.90
10788;DHT22;5446;50.826;4.380;2022-08-01T02:58:35;19.50;99.90
10788;DHT22;5446;50.826;4.380;2022-08-01T03:01:02;19.40;99.90
10788;DHT22;5446;50.826;4.380;2022-08-01T03:03:29;19.40;99.90
10788;DHT22;5446;50.826;4.380;2022-08-01T03:05:56;19.50;99.90
10788;DHT22;5446;50.826;4.380;2022-08-01T03:08:24;19.50;99.90
10788;DHT22;5446;50.826;4.380;2022-08-01T03:10:50;19.40;99.90
10788;DHT22;5446;50.826;4.380;2022-08-01T03:13:18;19.50;99.90
10788;DHT22;5446;50.826;4.380;2022-08-01T03:15:45;19.50;99.90
10788;DHT22;5446;50.826;4.380;2022-08-01T03:18:12;19.50;99.90
10788;DHT22;5446;50.826;4.380;2022-08-01T03:20:40;19.50;99.90
10788;DHT22;5446;50.826;4.380;2022-08-01T03:23:09;19.40;99.90
10788;DHT22;5446;50.826;4.380;2022-08-01T03:25:38;19.40;99.90
10788;DHT22;5446;50.826;4.380;2022-08-01T03:28:06;19.30;99.90
10788;DHT22;5446;50.826;4.380;2022-08-01T03:30:33;19.40;99.90
10788;DHT22;5446;50.826;4.380;2022-08-01T03:33:01;19.40;99.90
10788;DHT22;5446;50.826;4.380;2022-08-01T03:35:30;19.40;99.90
10788;DHT22;5446;50.826;4.380;2022-08-01T03:38:00;19.30;99.90
10788;DHT22;5446;50.826;4.380;2022-08-01T03:40:38;19.30;99.90
10788;DHT22;5446;50.826;4.380;2022-08-01T03:43:30;19.30;99.90
10788;DHT22;5446;50.826;4.380;2022-08-01T03:46:03;19.20;99.90
10788;DHT22;5446;50.826;4.380;2022-08-01T03:48:35;19.20;99.90
10788;DHT22;5446;50.826;4.380;2022-08-01T03:51:03;19.20;99.90
10788;DHT22;5446;50.826;4.380;2022-08-01T03:53:30;19.10;99.90
10788;DHT22;5446;50.826;4.380;2022-08-01T03:55:59;19.10;99.90
10788;DHT22;5446;50.826;4.380;2022-08-01T03:58:27;19.00;99.90
10788;DHT22;5446;50.826;4.380;2022-08-01T04:00:53;19.00;99.90
10788;DHT22;5446;50.826;4.380;2022-08-01T04:03:20;19.10;99.90
10788;DHT22;5446;50.826;4.380;2022-08-01T04:05:46;19.10;99.90
10788;DHT22;5446;50.826;4.380;2022-08-01T04:08:11;19.10;99.90
10788;DHT22;5446;50.826;4.380;2022-08-01T04:10:37;19.00;99.90
10788;DHT22;5446;50.826;4.380;2022-08-01T04:13:03;18.80;99.90
10788;DHT22;5446;50.826;4.380;2022-08-01T04:15:29;18.80;99.90
10788;DHT22;5446;50.826;4.380;2022-08-01T04:17:55;18.70;99.90
10788;DHT22;5446;50.826;4.380;2022-08-01T04:20:20;18.70;99.90
10788;DHT22;5446;50.826;4.380;2022-08-01T04:22:46;18.60;99.90
10788;DHT22;5446;50.826;4.380;2022-08-01T04:25:17;18.60;99.90
10788;DHT22;5446;50.826;4.380;2022-08-01T04:27:47;18.60;99.90
10788;DHT22;5446;50.826;4.380;2022-08-01T04:30:14;18.60;99.90
10788;DHT22;5446;50.826;4.380;2022-08-01T04:32:43;18.60;99.90
10788;DHT22;5446;50.826;4.380;2022-08-01T04:35:12;18.60;99.90
10788;DHT22;5446;50.826;4.380;2022-08-01T04:37:44;18.60;99.90
10788;DHT22;5446;50.826;4.380;2022-08-01T04:40:11;18.70;99.90
10788;DHT22;5446;50.826;4.380;2022-08-01T04:42:38;18.70;99.90
10788;DHT22;5446;50.826;4.380;2022-08-01T04:45:04;18.70;99.90
10788;DHT22;5446;50.826;4.380;2022-08-01T04:47:30;18.70;99.90
10788;DHT22;5446;50.826;4.380;2022-08-01T04:49:56;18.70;99.90
10788;DHT22;5446;50.826;4.380;2022-08-01T04:52:22;18.70;99.90
10788;DHT22;5446;50.826;4.380;2022-08-01T04:54:48;18.70;99.90
10788;DHT22;5446;50.826;4.380;2022-08-01T04:57:14;18.70;99.90
10788;DHT22;5446;50.826;4.380;2022-08-01T04:59:43;18.70;99.90
10788;DHT22;5446;50.826;4.380;2022-08-01T05:02:18;18.60;99.90
10788;DHT22;5446;50.826;4.380;2022-08-01T05:04:45;18.60;99.90
10788;DHT22;5446;50.826;4.380;2022-08-01T05:07:12;18.60;99.90
10788;DHT22;5446;50.826;4.380;2022-08-01T05:09:39;18.70;99.90
10788;DHT22;5446;50.826;4.380;2022-08-01T05:12:08;18.70;99.90
10788;DHT22;5446;50.826;4.380;2022-08-01T05:14:35;18.80;99.90
10788;DHT22;5446;50.826;4.380;2022-08-01T05:17:02;18.80;99.90
10788;DHT22;5446;50.826;4.380;2022-08-01T05:19:33;18.90;99.90
10788;DHT22;5446;50.826;4.380;2022-08-01T05:22:00;18.90;99.90
10788;DHT22;5446;50.826;4.380;2022-08-01T05:24:37;18.90;99.90
10788;DHT22;5446;50.826;4.380;2022-08-01T05:27:04;19.10;99.90
10788;DHT22;5446;50.826;4.380;2022-08-01T05:29:30;19.00;99.90
10788;DHT22;5446;50.826;4.380;2022-08-01T05:31:56;19.00;99.90
10788;DHT22;5446;50.826;4.380;2022-08-01T05:34:23;19.00;99.90
10788;DHT22;5446;50.826;4.380;2022-08-01T05:36:49;19.00;99.90
10788;DHT22;5446;50.826;4.380;2022-08-01T05:39:15;19.10;99.90
10788;DHT22;5446;50.826;4.380;2022-08-01T05:41:41;19.20;99.90
10788;DHT22;5446;50.826;4.380;2022-08-01T05:44:07;19.20;99.90
10788;DHT22;5446;50.826;4.380;2022-08-01T05:46:33;19.20;99.90
10788;DHT22;5446;50.826;4.380;2022-08-01T05:49:00;19.20;99.90
10788;DHT22;5446;50.826;4.380;2022-08-01T05:51:26;19.20;99.90
10788;DHT22;5446;50.826;4.380;2022-08-01T05:53:52;19.30;99.90
10788;DHT22;5446;50.826;4.380;2022-08-01T05:56:19;19.30;99.90
10788;DHT22;5446;50.826;4.380;2022-08-01T05:58:45;19.30;99.90
10788;DHT22;5446;50.826;4.380;2022-08-01T06:01:11;19.40;99.90
10788;DHT22;5446;50.826;4.380;2022-08-01T06:03:36;19.50;99.90
10788;DHT22;5446;50.826;4.380;2022-08-01T06:06:03;19.50;99.90
10788;DHT22;5446;50.826;4.380;2022-08-01T06:08:28;19.50;99.90
10788;DHT22;5446;50.826;4.380;2022-08-01T06:10:54;19.60;99.90
10788;DHT22;5446;50.826;4.380;2022-08-01T06:13:20;19.60;99.90
10788;DHT22;5446;50.826;4.380;2022-08-01T06:15:46;19.60;99.90
10788;DHT22;5446;50.826;4.380;2022-08-01T06:18:12;19.60;99.90
10788;DHT22;5446;50.826;4.380;2022-08-01T06:20:38;19.60;99.90
10788;DHT22;5446;50.826;4.380;2022-08-01T06:23:04;19.60;99.90
10788;DHT22;5446;50.826;4.380;2022-08-01T06:25:30;19.60;99.90
10788;DHT22;5446;50.826;4.380;2022-08-01T06:27:55;19.60;99.90
10788;DHT22;5446;50.826;4.380;2022-08-01T06:30:21;19.70;99.90
10788;DHT22;5446;50.826;4.380;2022-08-01T06:32:47;19.90;99.90
10788;DHT22;5446;50.826;4.380;2022-08-01T06:35:14;20.00;99.90
10788;DHT22;5446;50.826;4.380;2022-08-01T06:37:39;20.00;99.90
10788;DHT22;5446;50.826;4.380;2022-08-01T06:40:08;20.10;99.90
10788;DHT22;5446;50.826;4.380;2022-08-01T06:42:34;20.20;99.90
10788;DHT22;5446;50.826;4.380;2022-08-01T06:45:04;20.30;99.90
10788;DHT22;5446;50.826;4.380;2022-08-01T06:47:30;20.20;99.90
10788;DHT22;5446;50.826;4.380;2022-08-01T06:49:56;20.20;99.90
10788;DHT22;5446;50.826;4.380;2022-08-01T06:52:22;20.20;99.90
10788;DHT22;5446;50.826;4.380;2022-08-01T06:54:47;20.30;99.90
10788;DHT22;5446;50.826;4.380;2022-08-01T06:57:13;20.40;99.90
10788;DHT22;5446;50.826;4.380;2022-08-01T06:59:39;20.50;99.90
10788;DHT22;5446;50.826;4.380;2022-08-01T07:02:04;20.60;99.90
10788;DHT22;5446;50.826;4.380;2022-08-01T07:04:31;20.60;99.90
10788;DHT22;5446;50.826;4.380;2022-08-01T07:06:57;20.60;99.90
10788;DHT22;5446;50.826;4.380;2022-08-01T07:09:23;20.60;99.90
10788;DHT22;5446;50.826;4.380;2022-08-01T07:11:49;20.70;99.90
10788;DHT22;5446;50.826;4.380;2022-08-01T07:14:18;20.80;99.90
10788;DHT22;5446;50.826;4.380;2022-08-01T07:16:44;20.80;99.90
10788;DHT22;5446;50.826;4.380;2022-08-01T07:19:10;21.00;99.90
10788;DHT22;5446;50.826;4.380;2022-08-01T07:21:35;21.10;99.90
10788;DHT22;5446;50.826;4.380;2022-08-01T07:24:01;21.20;99.90
10788;DHT22;5446;50.826;4.380;2022-08-01T07:26:27;21.20;99.90
10788;DHT22;5446;50.826;4.380;2022-08-01T07:28:53;21.20;99.90
10788;DHT22;5446;50.826;4.380;2022-08-01T07:31:19;21.20;99.90
10788;DHT22;5446;50.826;4.380;2022-08-01T07:33:45;21.20;99.90
10788;DHT22;5446;50.826;4.380;2022-08-01T07:36:11;21.30;99.90
10788;DHT22;5446;50.826;4.380;2022-08-01T07:38:36;21.30;99.90
10788;DHT22;5446;50.826;4.380;2022-08-01T07:41:02;21.30;99.90
10788;DHT22;5446;50.826;4.380;2022-08-01T07:43:28;21.40;99.90
10788;DHT22;5446;50.826;4.380;2022-08-01T07:45:54;21.40;99.90
10788;DHT22;5446;50.826;4.380;2022-08-01T07:48:20;21.40;99.90
10788;DHT22;5446;50.826;4.380;2022-08-01T07:50:49;21.30;99.90
10788;DHT22;5446;50.826;4.380;2022-08-01T07:53:15;21.30;99.90
10788;DHT22;5446;50.826;4.380;2022-08-01T07:55:41;21.20;99.90
10788;DHT22;5446;50.826;4.380;2022-08-01T07:58:07;21.10;99.90
10788;DHT22;5446;50.826;4.380;2022-08-01T08:00:33;21.10;99.90
10788;DHT22;5446;50.826;4.380;2022-08-01T08:02:58;21.20;99.90
10788;DHT22;5446;50.826;4.380;2022-08-01T08:05:25;21.20;99.90
10788;DHT22;5446;50.826;4.380;2022-08-01T08:07:51;21.30;99.90
10788;DHT22;5446;50.826;4.380;2022-08-01T08:10:17;21.50;99.90
10788;DHT22;5446;50.826;4.380;2022-08-01T08:12:43;21.70;99.90
10788;DHT22;5446;50.826;4.380;2022-08-01T08:15:09;21.90;99.90
10788;DHT22;5446;50.826;4.380;2022-08-01T08:17:35;21.80;99.90
10788;DHT22;5446;50.826;4.380;2022-08-01T08:20:02;21.80;99.90
10788;DHT22;5446;50.826;4.380;2022-08-01T08:22:28;22.00;99.90
10788;DHT22;5446;50.826;4.380;2022-08-01T08:24:54;22.30;99.90
10788;DHT22;5446;50.826;4.380;2022-08-01T08:27:19;22.30;99.90
10788;DHT22;5446;50.826;4.380;2022-08-01T08:29:45;22.00;99.90
10788;DHT22;5446;50.826;4.380;2022-08-01T08:32:11;22.20;99.90
10788;DHT22;5446;50.826;4.380;2022-08-01T08:34:37;21.90;99.90
10788;DHT22;5446;50.826;4.380;2022-08-01T08:37:03;21.80;99.90
10788;DHT22;5446;50.826;4.380;2022-08-01T08:39:28;21.70;99.90
10788;DHT22;5446;50.826;4.380;2022-08-01T08:41:59;21.70;99.90
10788;DHT22;5446;50.826;4.380;2022-08-01T08:44:25;21.80;99.90
10788;DHT22;5446;50.826;4.380;2022-08-01T08:46:51;21.80;99.90
10788;DHT22;5446;50.826;4.380;2022-08-01T08:49:24;21.90;99.90
10788;DHT22;5446;50.826;4.380;2022-08-01T08:51:51;21.80;99.90
10788;DHT22;5446;50.826;4.380;2022-08-01T08:54:20;21.90;99.90
10788;DHT22;5446;50.826;4.380;2022-08-01T08:56:47;21.90;99.90
10788;DHT22;5446;50.826;4.380;2022-08-01T08:59:14;22.30;99.90
10788;DHT22;5446;50.826;4.380;2022-08-01T09:01:41;22.40;99.90
10788;DHT22;5446;50.826;4.380;2022-08-01T09:04:07;22.40;99.90
10788;DHT22;5446;50.826;4.380;2022-08-01T09:06:32;22.50;99.90
10788;DHT22;5446;50.826;4.380;2022-08-01T09:08:59;22.70;99.90
10788;DHT22;5446;50.826;4.380;2022-08-01T09:11:25;22.70;99.90
10788;DHT22;5446;50.826;4.380;2022-08-01T09:14:05;22.70;99.90
10788;DHT22;5446;50.826;4.380;2022-08-01T09:16:32;22.80;99.90
10788;DHT22;5446;50.826;4.380;2022-08-01T09:19:10;22.80;99.90
10788;DHT22;5446;50.826;4.380;2022-08-01T09:21:36;22.90;99.90
10788;DHT22;5446;50.826;4.380;2022-08-01T09:24:02;22.90;99.90
10788;DHT22;5446;50.826;4.380;2022-08-01T09:26:35;22.90;99.90
10788;DHT22;5446;50.826;4.380;2022-08-01T09:29:07;23.00;99.90
10788;DHT22;5446;50.826;4.380;2022-08-01T09:31:43;23.00;99.90
10788;DHT22;5446;50.826;4.380;2022-08-01T09:34:09;23.00;99.90
10788;DHT22;5446;50.826;4.380;2022-08-01T09:36:50;22.80;99.90
10788;DHT22;5446;50.826;4.380;2022-08-01T09:41:55;23.00;99.90
10788;DHT22;5446;50.826;4.380;2022-08-01T09:44:42;22.90;99.90
10788;DHT22;5446;50.826;4.380;2022-08-01T09:47:09;23.00;99.90
10788;DHT22;5446;50.826;4.380;2022-08-01T09:49:38;23.00;99.90
10788;DHT22;5446;50.826;4.380;2022-08-01T09:52:22;22.80;99.90
10788;DHT22;5446;50.826;4.380;2022-08-01T09:54:55;22.80;99.90
10788;DHT22;5446;50.826;4.380;2022-08-01T09:57:21;22.60;99.90
10788;DHT22;5446;50.826;4.380;2022-08-01T09:59:50;22.90;99.90
10788;DHT22;5446;50.826;4.380;2022-08-01T10:02:36;23.10;99.90
10788;DHT22;5446;50.826;4.380;2022-08-01T10:05:08;23.50;99.90
10788;DHT22;5446;50.826;4.380;2022-08-01T10:07:36;23.70;99.90
10788;DHT22;5446;50.826;4.380;2022-08-01T10:10:19;24.10;99.90
10788;DHT22;5446;50.826;4.380;2022-08-01T10:12:45;23.90;99.90
10788;DHT22;5446;50.826;4.380;2022-08-01T10:15:16;24.00;99.90
10788;DHT22;5446;50.826;4.380;2022-08-01T10:17:57;24.10;99.90
10788;DHT22;5446;50.826;4.380;2022-08-01T10:20:31;23.90;99.90
10788;DHT22;5446;50.826;4.380;2022-08-01T10:23:04;23.70;99.90
10788;DHT22;5446;50.826;4.380;2022-08-01T10:25:35;23.70;99.90
10788;DHT22;5446;50.826;4.380;2022-08-01T10:28:10;23.80;99.90
10788;DHT22;5446;50.826;4.380;2022-08-01T10:30:37;24.00;99.90
10788;DHT22;5446;50.826;4.380;2022-08-01T10:33:03;24.30;99.90
10788;DHT22;5446;50.826;4.380;2022-08-01T10:35:29;24.40;99.90
10788;DHT22;5446;50.826;4.380;2022-08-01T10:37:55;24.30;99.90
10788;DHT22;5446;50.826;4.380;2022-08-01T10:40:23;24.30;99.90
10788;DHT22;5446;50.826;4.380;2022-08-01T10:42:50;24.40;99.90
10788;DHT22;5446;50.826;4.380;2022-08-01T10:45:17;24.20;99.90
10788;DHT22;5446;50.826;4.380;2022-08-01T10:47:48;24.10;99.90
10788;DHT22;5446;50.826;4.380;2022-08-01T10:50:35;24.30;99.90
10788;DHT22;5446;50.826;4.380;2022-08-01T10:53:13;24.50;99.90
10788;DHT22;5446;50.826;4.380;2022-08-01T10:56:00;24.50;99.90
10788;DHT22;5446;50.826;4.380;2022-08-01T10:58:32;24.80;99.90
10788;DHT22;5446;50.826;4.380;2022-08-01T11:01:29;24.90;99.90
10788;DHT22;5446;50.826;4.380;2022-08-01T11:08:58;24.50;99.90
10788;DHT22;5446;50.826;4.380;2022-08-01T11:11:25;24.50;99.90
10788;DHT22;5446;50.826;4.380;2022-08-01T11:14:00;24.60;99.90
10788;DHT22;5446;50.826;4.380;2022-08-01T11:16:34;24.70;99.90
10788;DHT22;5446;50.826;4.380;2022-08-01T11:19:01;24.90;99.90
10788;DHT22;5446;50.826;4.380;2022-08-01T11:27:31;24.70;99.90
10788;DHT22;5446;50.826;4.380;2022-08-01T11:35:16;24.40;99.90
10788;DHT22;5446;50.826;4.380;2022-08-01T11:37:43;24.60;99.90
10788;DHT22;5446;50.826;4.380;2022-08-01T11:40:18;24.70;99.90
10788;DHT22;5446;50.826;4.380;2022-08-01T11:42:45;24.60;99.90
10788;DHT22;5446;50.826;4.380;2022-08-01T11:45:10;24.70;99.90
10788;DHT22;5446;50.826;4.380;2022-08-01T11:53:20;24.50;99.90
10788;DHT22;5446;50.826;4.380;2022-08-01T11:55:48;24.70;99.90
10788;DHT22;5446;50.826;4.380;2022-08-01T11:58:16;24.80;99.90
10788;DHT22;5446;50.826;4.380;2022-08-01T12:00:42;24.70;99.90
10788;DHT22;5446;50.826;4.380;2022-08-01T12:03:15;24.80;99.90
10788;DHT22;5446;50.826;4.380;2022-08-01T12:05:44;24.70;99.90
10788;DHT22;5446;50.826;4.380;2022-08-01T12:08:10;24.80;99.90
10788;DHT22;5446;50.826;4.380;2022-08-01T12:10:36;24.60;99.90
10788;DHT22;5446;50.826;4.380;2022-08-01T12:13:06;24.70;99.90
10788;DHT22;5446;50.826;4.380;2022-08-01T12:15:36;24.90;99.90
10788;DHT22;5446;50.826;4.380;2022-08-01T12:18:05;25.40;99.90
10788;DHT22;5446;50.826;4.380;2022-08-01T12:20:37;25.60;99.90
10788;DHT22;5446;50.826;4.380;2022-08-01T12:23:11;25.60;99.90
10788;DHT22;5446;50.826;4.380;2022-08-01T12:25:37;25.50;99.90
10788;DHT22;5446;50.826;4.380;2022-08-01T12:28:06;25.60;99.90
10788;DHT22;5446;50.826;4.380;2022-08-01T12:30:34;25.60;99.90
10788;DHT22;5446;50.826;4.380;2022-08-01T12:33:01;25.50;99.90
10788;DHT22;5446;50.826;4.380;2022-08-01T12:35:30;25.60;99.90
10788;DHT22;5446;50.826;4.380;2022-08-01T12:37:58;25.60;99.90
10788;DHT22;5446;50.826;4.380;2022-08-01T12:40:36;25.40;99.90
10788;DHT22;5446;50.826;4.380;2022-08-01T12:43:07;25.60;99.90
10788;DHT22;5446;50.826;4.380;2022-08-01T12:45:35;25.70;99.90
10788;DHT22;5446;50.826;4.380;2022-08-01T12:48:05;25.80;99.90
10788;DHT22;5446;50.826;4.380;2022-08-01T12:50:32;26.00;99.90
10788;DHT22;5446;50.826;4.380;2022-08-01T12:52:58;26.30;99.90
10788;DHT22;5446;50.826;4.380;2022-08-01T12:55:26;26.30;99.90
10788;DHT22;5446;50.826;4.380;2022-08-01T12:58:11;26.10;99.90
10788;DHT22;5446;50.826;4.380;2022-08-01T13:00:40;26.00;99.90
10788;DHT22;5446;50.826;4.380;2022-08-01T13:05:45;25.80;99.90
10788;DHT22;5446;50.826;4.380;2022-08-01T13:08:34;25.80;99.90
10788;DHT22;5446;50.826;4.380;2022-08-01T13:11:10;25.90;99.90
10788;DHT22;5446;50.826;4.380;2022-08-01T13:13:41;25.90;99.90
10788;DHT22;5446;50.826;4.380;2022-08-01T13:16:08;26.30;99.90
10788;DHT22;5446;50.826;4.380;2022-08-01T13:18:35;26.20;99.90
10788;DHT22;5446;50.826;4.380;2022-08-01T13:21:14;26.20;99.90
10788;DHT22;5446;50.826;4.380;2022-08-01T13:26:48;26.10;99.90
10788;DHT22;5446;50.826;4.380;2022-08-01T13:29:16;25.70;99.90
10788;DHT22;5446;50.826;4.380;2022-08-01T13:31:43;25.60;99.90
10788;DHT22;5446;50.826;4.380;2022-08-01T13:34:09;25.50;99.90
10788;DHT22;5446;50.826;4.380;2022-08-01T13:36:36;25.30;99.90
10788;DHT22;5446;50.826;4.380;2022-08-01T13:39:02;25.00;99.90
10788;DHT22;5446;50.826;4.380;2022-08-01T13:41:47;25.00;99.90
10788;DHT22;5446;50.826;4.380;2022-08-01T13:44:13;25.00;99.90
10788;DHT22;5446;50.826;4.380;2022-08-01T13:46:40;25.20;99.90
10788;DHT22;5446;50.826;4.380;2022-08-01T13:49:08;25.30;99.90
10788;DHT22;5446;50.826;4.380;2022-08-01T13:51:34;25.20;99.90
10788;DHT22;5446;50.826;4.380;2022-08-01T13:54:00;25.40;99.90
10788;DHT22;5446;50.826;4.380;2022-08-01T13:56:26;25.50;99.90
10788;DHT22;5446;50.826;4.380;2022-08-01T13:58:55;25.70;99.90
10788;DHT22;5446;50.826;4.380;2022-08-01T14:01:22;25.60;99.90
10788;DHT22;5446;50.826;4.380;2022-08-01T14:03:48;25.50;99.90
10788;DHT22;5446;50.826;4.380;2022-08-01T14:06:14;25.50;99.90
10788;DHT22;5446;50.826;4.380;2022-08-01T14:08:42;25.60;99.90
10788;DHT22;5446;50.826;4.380;2022-08-01T14:11:08;25.90;99.90
10788;DHT22;5446;50.826;4.380;2022-08-01T14:13:33;26.00;99.90
10788;DHT22;5446;50.826;4.380;2022-08-01T14:15:59;25.90;99.90
10788;DHT22;5446;50.826;4.380;2022-08-01T14:18:25;25.90;99.90
10788;DHT22;5446;50.826;4.380;2022-08-01T14:20:51;26.00;99.90
10788;DHT22;5446;50.826;4.380;2022-08-01T14:23:17;25.80;99.90
10788;DHT22;5446;50.826;4.380;2022-08-01T14:25:43;25.70;99.90
10788;DHT22;5446;50.826;4.380;2022-08-01T14:28:09;25.80;99.90
10788;DHT22;5446;50.826;4.380;2022-08-01T14:30:35;25.60;99.90
10788;DHT22;5446;50.826;4.380;2022-08-01T14:33:01;25.70;99.90
10788;DHT22;5446;50.826;4.380;2022-08-01T14:35:27;25.60;99.90
10788;DHT22;5446;50.826;4.380;2022-08-01T14:37:52;25.80;99.90
10788;DHT22;5446;50.826;4.380;2022-08-01T14:40:18;25.80;99.90
10788;DHT22;5446;50.826;4.380;2022-08-01T14:42:44;26.00;99.90
10788;DHT22;5446;50.826;4.380;2022-08-01T14:45:12;26.30;99.90
10788;DHT22;5446;50.826;4.380;2022-08-01T14:47:39;26.20;99.90
10788;DHT22;5446;50.826;4.380;2022-08-01T14:50:07;26.10;99.90
10788;DHT22;5446;50.826;4.380;2022-08-01T14:52:34;26.00;99.90
10788;DHT22;5446;50.826;4.380;2022-08-01T14:55:00;26.00;99.90
10788;DHT22;5446;50.826;4.380;2022-08-01T14:57:26;26.10;99.90
10788;DHT22;5446;50.826;4.380;2022-08-01T14:59:52;26.30;99.90
10788;DHT22;5446;50.826;4.380;2022-08-01T15:02:18;26.10;99.90
10788;DHT22;5446;50.826;4.380;2022-08-01T15:04:44;26.20;99.90
10788;DHT22;5446;50.826;4.380;2022-08-01T15:07:10;26.20;99.90
10788;DHT22;5446;50.826;4.380;2022-08-01T15:09:37;26.20;99.90
10788;DHT22;5446;50.826;4.380;2022-08-01T15:12:02;26.30;99.90
10788;DHT22;5446;50.826;4.380;2022-08-01T15:14:28;26.50;99.90
10788;DHT22;5446;50.826;4.380;2022-08-01T15:17:24;26.30;99.90
10788;DHT22;5446;50.826;4.380;2022-08-01T15:19:52;26.40;99.90
10788;DHT22;5446;50.826;4.380;2022-08-01T15:22:21;26.30;99.90
10788;DHT22;5446;50.826;4.380;2022-08-01T15:24:48;26.40;99.90
10788;DHT22;5446;50.826;4.380;2022-08-01T15:27:14;26.80;99.90
10788;DHT22;5446;50.826;4.380;2022-08-01T15:29:39;26.90;99.90
10788;DHT22;5446;50.826;4.380;2022-08-01T15:32:06;27.10;99.90
10788;DHT22;5446;50.826;4.380;2022-08-01T15:34:34;27.40;99.90
10788;DHT22;5446;50.826;4.380;2022-08-01T15:37:00;26.70;99.90
10788;DHT22;5446;50.826;4.380;2022-08-01T15:39:26;26.90;99.90
10788;DHT22;5446;50.826;4.380;2022-08-01T15:41:52;27.20;99.90
10788;DHT22;5446;50.826;4.380;2022-08-01T15:44:18;27.30;99.90
10788;DHT22;5446;50.826;4.380;2022-08-01T15:46:48;27.00;99.90
10788;DHT22;5446;50.826;4.380;2022-08-01T15:49:15;26.60;99.90
10788;DHT22;5446;50.826;4.380;2022-08-01T15:51:41;26.60;99.90
10788;DHT22;5446;50.826;4.380;2022-08-01T15:54:07;27.30;99.90
10788;DHT22;5446;50.826;4.380;2022-08-01T15:56:33;27.70;99.90
10788;DHT22;5446;50.826;4.380;2022-08-01T15:58:59;28.10;99.90
10788;DHT22;5446;50.826;4.380;2022-08-01T16:01:25;27.80;99.90
10788;DHT22;5446;50.826;4.380;2022-08-01T16:03:52;27.80;99.90
10788;DHT22;5446;50.826;4.380;2022-08-01T16:06:18;28.10;99.90
10788;DHT22;5446;50.826;4.380;2022-08-01T16:08:44;28.00;99.90
10788;DHT22;5446;50.826;4.380;2022-08-01T16:11:10;27.60;99.90
10788;DHT22;5446;50.826;4.380;2022-08-01T16:13:35;27.00;99.90
10788;DHT22;5446;50.826;4.380;2022-08-01T16:16:01;26.80;99.90
10788;DHT22;5446;50.826;4.380;2022-08-01T16:18:29;27.20;99.90
10788;DHT22;5446;50.826;4.380;2022-08-01T16:20:56;27.80;99.90
10788;DHT22;5446;50.826;4.380;2022-08-01T16:23:25;28.30;99.90
10788;DHT22;5446;50.826;4.380;2022-08-01T16:25:52;28.50;99.40
10788;DHT22;5446;50.826;4.380;2022-08-01T16:28:18;28.00;99.40
10788;DHT22;5446;50.826;4.380;2022-08-01T16:30:44;27.50;99.70
10788;DHT22;5446;50.826;4.380;2022-08-01T16:33:10;27.60;99.70